createdAt,value
2018-01-06T00:00:10.261Z,8.5
2018-01-06T00:01:10.921Z,8.6
2018-01-06T00:02:11.587Z,8.6
2018-01-06T00:03:12.242Z,8.6
2018-01-06T00:04:12.902Z,8.6
2018-01-06T00:05:13.563Z,8.7
2018-01-06T00:06:14.224Z,8.6
2018-01-06T00:07:14.883Z,8.7
2018-01-06T00:08:15.544Z,8.7
2018-01-06T00:09:16.202Z,8.7
2018-01-06T00:10:16.865Z,8.7
2018-01-06T00:11:17.526Z,8.7
2018-01-06T00:12:18.186Z,8.7
2018-01-06T00:13:18.848Z,8.8
2018-01-06T00:14:19.508Z,8.7
2018-01-06T00:15:20.169Z,8.7
2018-01-06T00:16:20.868Z,8.7
2018-01-06T00:17:21.524Z,8.7
2018-01-06T00:18:22.184Z,8.8
2018-01-06T00:19:22.845Z,8.8
2018-01-06T00:20:23.505Z,8.8
2018-01-06T00:21:24.164Z,8.7
2018-01-06T00:22:24.823Z,8.9
2018-01-06T00:23:25.486Z,8.8
2018-01-06T00:24:26.143Z,8.8
2018-01-06T00:25:26.803Z,8.8
2018-01-06T00:26:27.463Z,8.7
2018-01-06T00:27:28.122Z,8.8
2018-01-06T00:28:28.781Z,8.9
2018-01-06T00:29:29.441Z,8.9
2018-01-06T00:30:30.102Z,8.9
2018-01-06T00:31:30.763Z,8.9
2018-01-06T00:32:31.424Z,8.9
2018-01-06T00:33:32.121Z,8.9
2018-01-06T00:34:32.781Z,8.9
2018-01-06T00:35:33.443Z,8.9
2018-01-06T00:36:34.104Z,8.8
2018-01-06T00:37:34.765Z,8.9
2018-01-06T00:38:35.426Z,8.8
2018-01-06T00:39:36.087Z,8.9
2018-01-06T00:40:36.747Z,8.8
2018-01-06T00:41:37.409Z,8.9
2018-01-06T00:42:38.070Z,8.9
2018-01-06T00:43:38.730Z,9.0
2018-01-06T00:44:39.389Z,8.9
2018-01-06T00:45:40.049Z,8.9
2018-01-06T00:46:40.708Z,8.9
2018-01-06T00:47:41.405Z,8.9
2018-01-06T00:48:42.066Z,8.9
2018-01-06T00:49:42.728Z,9.0
2018-01-06T00:50:43.389Z,9.0
2018-01-06T00:51:44.054Z,9.0
2018-01-06T00:52:44.748Z,9.0
2018-01-06T00:53:45.414Z,9.0
2018-01-06T00:54:46.072Z,9.0
2018-01-06T00:55:46.734Z,9.0
2018-01-06T00:56:47.396Z,9.1
2018-01-06T00:57:48.057Z,9.1
2018-01-06T00:58:48.721Z,9.0
2018-01-06T00:59:49.418Z,9.1
2018-01-06T01:00:50.079Z,9.1
2018-01-06T01:01:50.748Z,9.0
2018-01-06T01:02:51.404Z,9.1
2018-01-06T01:03:52.067Z,9.1
2018-01-06T01:04:52.729Z,9.1
2018-01-06T01:05:53.389Z,9.1
2018-01-06T01:06:54.051Z,9.1
2018-01-06T01:07:54.714Z,9.1
2018-01-06T01:08:55.376Z,9.1
2018-01-06T01:09:56.037Z,9.1
2018-01-06T01:10:56.699Z,9.2
2018-01-06T01:11:57.364Z,9.2
2018-01-06T01:12:58.022Z,9.2
2018-01-06T01:13:58.684Z,9.2
2018-01-06T01:14:59.346Z,9.2
2018-01-06T01:16:00.010Z,9.2
2018-01-06T01:17:00.670Z,9.2
2018-01-06T01:18:01.365Z,9.2
2018-01-06T01:19:02.026Z,9.2
2018-01-06T01:20:02.690Z,9.2
2018-01-06T01:21:03.352Z,9.2
2018-01-06T01:22:04.015Z,9.2
2018-01-06T01:23:04.677Z,9.2
2018-01-06T01:24:05.338Z,9.1
2018-01-06T01:25:05.998Z,9.2
2018-01-06T01:26:06.659Z,9.1
2018-01-06T01:27:07.321Z,9.1
2018-01-06T01:28:07.984Z,9.1
2018-01-06T01:29:08.644Z,9.1
2018-01-06T01:30:09.306Z,9.1
2018-01-06T01:31:09.968Z,9.1
2018-01-06T01:32:10.679Z,9.1
2018-01-06T01:33:11.338Z,9.0
2018-01-06T01:34:11.998Z,9.1
2018-01-06T01:35:12.659Z,9.0
2018-01-06T01:36:13.319Z,9.1
2018-01-06T01:37:14.032Z,9.1
2018-01-06T01:38:14.690Z,9.1
2018-01-06T01:39:15.349Z,9.0
2018-01-06T01:40:16.014Z,9.1
2018-01-06T01:41:16.708Z,9.0
2018-01-06T01:42:17.369Z,9.1
2018-01-06T01:43:18.036Z,9.0
2018-01-06T01:44:18.694Z,8.9
2018-01-06T01:45:19.355Z,9.0
2018-01-06T01:46:20.017Z,9.0
2018-01-06T01:47:20.680Z,9.0
2018-01-06T01:48:21.347Z,9.0
2018-01-06T01:49:22.004Z,9.0
2018-01-06T01:50:22.665Z,9.0
2018-01-06T01:51:23.326Z,9.0
2018-01-06T01:52:23.987Z,9.0
2018-01-06T01:53:24.650Z,9.0
2018-01-06T01:54:25.310Z,9.1
2018-01-06T01:55:25.971Z,9.0
2018-01-06T01:56:26.671Z,9.0
2018-01-06T01:57:27.388Z,9.0
2018-01-06T01:58:28.049Z,9.1
2018-01-06T01:59:28.704Z,9.1
2018-01-06T02:00:29.365Z,9.1
2018-01-06T02:01:30.026Z,9.0
2018-01-06T02:02:30.738Z,9.1
2018-01-06T02:03:31.399Z,9.1
2018-01-06T02:04:32.061Z,9.1
2018-01-06T02:05:32.723Z,9.0
2018-01-06T02:06:33.385Z,9.0
2018-01-06T02:07:34.098Z,9.0
2018-01-06T02:08:34.782Z,9.0
2018-01-06T02:09:35.420Z,9.1
2018-01-06T02:10:36.081Z,9.0
2018-01-06T02:11:36.743Z,9.0
2018-01-06T02:12:37.407Z,9.0
2018-01-06T02:13:38.063Z,9.0
2018-01-06T02:14:38.724Z,9.1
2018-01-06T02:15:39.384Z,8.9
2018-01-06T02:16:40.048Z,9.0
2018-01-06T02:17:40.707Z,8.9
2018-01-06T02:18:41.368Z,9.0
2018-01-06T02:19:42.029Z,9.0
2018-01-06T02:20:42.693Z,8.9
2018-01-06T02:21:43.389Z,9.0
2018-01-06T02:22:44.051Z,8.9
2018-01-06T02:23:44.712Z,8.9
2018-01-06T02:24:45.375Z,9.1
2018-01-06T02:25:46.036Z,8.9
2018-01-06T02:26:46.698Z,8.9
2018-01-06T02:27:47.408Z,8.9
2018-01-06T02:28:48.022Z,9.0
2018-01-06T02:29:48.683Z,9.1
2018-01-06T02:30:49.349Z,9.0
2018-01-06T02:31:50.045Z,9.0
2018-01-06T02:32:50.707Z,8.9
2018-01-06T02:33:51.368Z,9.0
2018-01-06T02:34:52.031Z,9.0
2018-01-06T02:35:52.697Z,9.0
2018-01-06T02:36:53.393Z,9.0
2018-01-06T02:37:54.055Z,8.9
2018-01-06T02:38:54.717Z,9.0
2018-01-06T02:39:55.379Z,8.9
2018-01-06T02:40:56.040Z,9.0
2018-01-06T02:41:56.702Z,8.9
2018-01-06T02:42:57.365Z,8.9
2018-01-06T02:43:58.026Z,9.0
2018-01-06T02:44:58.688Z,9.0
2018-01-06T02:45:59.350Z,9.0
2018-01-06T02:47:00.018Z,9.0
2018-01-06T02:48:00.722Z,9.0
2018-01-06T02:49:01.384Z,9.0
2018-01-06T02:50:02.046Z,9.0
2018-01-06T02:51:02.708Z,9.0
2018-01-06T02:52:03.368Z,8.9
2018-01-06T02:53:04.029Z,9.0
2018-01-06T02:54:04.690Z,8.9
2018-01-06T02:55:05.351Z,9.0
2018-01-06T02:56:06.016Z,9.0
2018-01-06T02:57:06.673Z,9.0
2018-01-06T02:58:07.339Z,9.0
2018-01-06T02:59:07.996Z,9.0
2018-01-06T03:00:08.657Z,9.0
2018-01-06T03:01:09.317Z,9.0
2018-01-06T03:02:09.977Z,8.9
2018-01-06T03:03:10.638Z,9.0
2018-01-06T03:04:11.299Z,9.0
2018-01-06T03:05:11.959Z,8.9
2018-01-06T03:06:12.620Z,9.0
2018-01-06T03:07:13.280Z,8.9
2018-01-06T03:08:13.941Z,9.0
2018-01-06T03:09:14.603Z,8.9
2018-01-06T03:10:15.264Z,8.9
2018-01-06T03:11:15.925Z,9.0
2018-01-06T03:12:16.586Z,8.9
2018-01-06T03:13:17.247Z,8.9
2018-01-06T03:14:17.909Z,8.9
2018-01-06T03:15:18.573Z,9.0
2018-01-06T03:16:19.267Z,8.9
2018-01-06T03:17:19.929Z,8.9
2018-01-06T03:18:20.641Z,8.9
2018-01-06T03:19:21.301Z,8.9
2018-01-06T03:20:21.963Z,8.9
2018-01-06T03:21:22.625Z,8.7
2018-01-06T03:22:23.284Z,8.8
2018-01-06T03:23:23.946Z,8.8
2018-01-06T03:24:24.606Z,8.8
2018-01-06T03:25:25.268Z,8.7
2018-01-06T03:26:25.929Z,8.7
2018-01-06T03:27:26.590Z,8.8
2018-01-06T03:28:27.251Z,8.7
2018-01-06T03:29:27.912Z,8.7
2018-01-06T03:30:28.574Z,8.7
2018-01-06T03:31:29.235Z,8.8
2018-01-06T03:32:29.896Z,8.7
2018-01-06T03:33:30.557Z,8.8
2018-01-06T03:34:31.216Z,8.7
2018-01-06T03:35:31.879Z,8.7
2018-01-06T03:36:32.541Z,8.8
2018-01-06T03:37:33.204Z,8.7
2018-01-06T03:38:33.864Z,8.7
2018-01-06T03:39:34.522Z,8.7
2018-01-06T03:40:35.183Z,8.8
2018-01-06T03:41:35.844Z,8.7
2018-01-06T03:42:36.505Z,8.7
2018-01-06T03:43:37.166Z,8.7
2018-01-06T03:44:37.827Z,8.7
2018-01-06T03:45:38.488Z,8.7
2018-01-06T03:46:39.187Z,8.7
2018-01-06T03:47:39.849Z,8.7
2018-01-06T03:48:40.510Z,8.7
2018-01-06T03:49:41.232Z,8.7
2018-01-06T03:50:41.835Z,8.7
2018-01-06T03:51:42.496Z,8.7
2018-01-06T03:52:43.157Z,8.6
2018-01-06T03:53:43.818Z,8.7
2018-01-06T03:54:44.479Z,8.7
2018-01-06T03:55:45.140Z,8.7
2018-01-06T03:56:45.836Z,8.6
2018-01-06T03:57:46.510Z,8.6
2018-01-06T03:58:47.214Z,8.6
2018-01-06T03:59:47.909Z,8.7
2018-01-06T04:00:48.570Z,8.6
2018-01-06T04:01:49.232Z,8.6
2018-01-06T04:02:49.895Z,8.6
2018-01-06T04:03:50.592Z,8.7
2018-01-06T04:04:51.256Z,8.6
2018-01-06T04:05:51.916Z,8.6
2018-01-06T04:06:52.577Z,8.6
2018-01-06T04:07:53.238Z,8.6
2018-01-06T04:08:53.900Z,8.7
2018-01-06T04:09:54.562Z,8.7
2018-01-06T04:10:55.224Z,8.5
2018-01-06T04:11:55.885Z,8.6
2018-01-06T04:12:56.547Z,8.6
2018-01-06T04:13:57.208Z,8.6
2018-01-06T04:14:57.869Z,8.6
2018-01-06T04:15:58.534Z,8.6
2018-01-06T04:16:59.190Z,8.5
2018-01-06T04:17:59.851Z,8.6
2018-01-06T04:19:00.513Z,8.6
2018-01-06T04:20:01.174Z,8.6
2018-01-06T04:21:01.875Z,8.5
2018-01-06T04:22:02.495Z,8.5
2018-01-06T04:23:03.158Z,8.6
2018-01-06T04:24:03.819Z,8.6
2018-01-06T04:25:04.479Z,8.5
2018-01-06T04:26:05.141Z,8.5
2018-01-06T04:27:05.801Z,8.5
2018-01-06T04:28:06.466Z,8.4
2018-01-06T04:29:07.122Z,8.4
2018-01-06T04:30:07.783Z,8.3
2018-01-06T04:31:08.444Z,8.4
2018-01-06T04:32:09.104Z,8.3
2018-01-06T04:33:09.767Z,8.3
2018-01-06T04:34:10.428Z,8.2
2018-01-06T04:35:11.088Z,8.3
2018-01-06T04:36:11.751Z,8.2
2018-01-06T04:37:12.409Z,8.3
2018-01-06T04:38:13.070Z,8.2
2018-01-06T04:39:13.730Z,8.3
2018-01-06T04:40:14.391Z,8.1
2018-01-06T04:41:15.055Z,8.2
2018-01-06T04:42:15.714Z,8.2
2018-01-06T04:43:16.374Z,8.1
2018-01-06T04:44:17.034Z,8.0
2018-01-06T04:45:17.695Z,8.1
2018-01-06T04:46:18.356Z,8.2
2018-01-06T04:47:19.017Z,8.1
2018-01-06T04:48:19.678Z,8.1
2018-01-06T04:49:20.389Z,8.1
2018-01-06T04:50:21.054Z,8.0
2018-01-06T04:51:21.745Z,8.1
2018-01-06T04:52:22.407Z,8.1
2018-01-06T04:53:23.068Z,8.1
2018-01-06T04:54:23.729Z,8.0
2018-01-06T04:55:24.390Z,8.1
2018-01-06T04:56:25.051Z,8.1
2018-01-06T04:57:25.713Z,8.2
2018-01-06T04:58:26.371Z,8.3
2018-01-06T04:59:27.032Z,8.2
2018-01-06T05:00:27.692Z,8.2
2018-01-06T05:01:28.354Z,8.3
2018-01-06T05:02:29.014Z,8.2
2018-01-06T05:03:29.675Z,8.2
2018-01-06T05:04:30.337Z,8.2
2018-01-06T05:05:30.997Z,8.2
2018-01-06T05:06:31.658Z,8.2
2018-01-06T05:07:32.319Z,8.1
2018-01-06T05:08:32.980Z,8.2
2018-01-06T05:09:33.640Z,8.1
2018-01-06T05:10:34.301Z,8.1
2018-01-06T05:11:34.962Z,8.1
2018-01-06T05:12:35.622Z,8.1
2018-01-06T05:13:36.284Z,8.0
2018-01-06T05:14:36.945Z,7.9
2018-01-06T05:15:37.605Z,7.9
2018-01-06T05:16:38.266Z,7.8
2018-01-06T05:17:38.927Z,7.8
2018-01-06T05:18:39.587Z,7.8
2018-01-06T05:19:40.250Z,7.7
2018-01-06T05:20:40.910Z,7.8
2018-01-06T05:21:41.569Z,7.7
2018-01-06T05:22:42.231Z,7.7
2018-01-06T05:23:42.891Z,7.7
2018-01-06T05:24:43.552Z,7.6
2018-01-06T05:25:44.212Z,7.7
2018-01-06T05:26:44.875Z,7.6
2018-01-06T05:27:45.535Z,7.6
2018-01-06T05:28:46.195Z,7.7
2018-01-06T05:29:46.856Z,7.6
2018-01-06T05:30:47.516Z,7.7
2018-01-06T05:31:48.177Z,7.6
2018-01-06T05:32:48.837Z,7.7
2018-01-06T05:33:49.498Z,7.7
2018-01-06T05:34:50.159Z,7.6
2018-01-06T05:35:50.819Z,7.7
2018-01-06T05:36:51.480Z,7.8
2018-01-06T05:37:52.145Z,7.7
2018-01-06T05:38:52.801Z,7.8
2018-01-06T05:39:53.461Z,7.8
2018-01-06T05:40:54.121Z,7.7
2018-01-06T05:41:54.783Z,7.7
2018-01-06T05:42:55.445Z,7.7
2018-01-06T05:43:56.104Z,7.8
2018-01-06T05:44:56.764Z,7.8
2018-01-06T05:45:57.425Z,7.8
2018-01-06T05:46:58.087Z,7.8
2018-01-06T05:47:58.746Z,7.7
2018-01-06T05:48:59.406Z,7.7
2018-01-06T05:50:00.068Z,7.8
2018-01-06T05:51:00.764Z,7.7
2018-01-06T05:52:01.426Z,7.7
2018-01-06T05:53:02.087Z,7.8
2018-01-06T05:54:02.749Z,7.8
2018-01-06T05:55:03.435Z,7.8
2018-01-06T05:56:04.070Z,7.9
2018-01-06T05:57:04.732Z,7.9
2018-01-06T05:58:05.393Z,8.0
2018-01-06T05:59:06.054Z,8.0
2018-01-06T06:00:06.714Z,8.0
2018-01-06T06:01:07.376Z,8.0
2018-01-06T06:02:08.038Z,8.0
2018-01-06T06:03:08.696Z,8.0
2018-01-06T06:04:09.358Z,8.1
2018-01-06T06:05:10.019Z,8.1
2018-01-06T06:06:10.680Z,8.1
2018-01-06T06:07:11.341Z,8.0
2018-01-06T06:08:12.001Z,8.0
2018-01-06T06:09:12.663Z,8.2
2018-01-06T06:10:13.373Z,8.1
2018-01-06T06:11:14.033Z,8.2
2018-01-06T06:12:14.694Z,8.1
2018-01-06T06:13:15.353Z,8.2
2018-01-06T06:14:16.013Z,8.3
2018-01-06T06:15:16.674Z,8.3
2018-01-06T06:16:17.334Z,8.3
2018-01-06T06:17:17.994Z,8.2
2018-01-06T06:18:18.656Z,8.3
2018-01-06T06:19:19.315Z,8.3
2018-01-06T06:20:19.976Z,8.3
2018-01-06T06:21:20.637Z,8.3
2018-01-06T06:22:21.298Z,8.2
2018-01-06T06:23:21.959Z,8.2
2018-01-06T06:24:22.620Z,8.2
2018-01-06T06:25:23.280Z,8.2
2018-01-06T06:26:23.940Z,8.2
2018-01-06T06:27:24.602Z,8.3
2018-01-06T06:28:25.263Z,8.1
2018-01-06T06:29:25.922Z,8.1
2018-01-06T06:30:26.584Z,8.0
2018-01-06T06:31:27.246Z,8.0
2018-01-06T06:32:27.906Z,7.9
2018-01-06T06:33:28.565Z,7.8
2018-01-06T06:34:29.226Z,7.8
2018-01-06T06:35:29.888Z,7.7
2018-01-06T06:36:30.587Z,7.6
2018-01-06T06:37:31.283Z,7.6
2018-01-06T06:38:31.945Z,7.6
2018-01-06T06:39:32.606Z,7.4
2018-01-06T06:40:33.268Z,7.3
2018-01-06T06:41:33.929Z,7.3
2018-01-06T06:42:34.592Z,7.3
2018-01-06T06:43:35.253Z,7.2
2018-01-06T06:44:35.915Z,7.3
2018-01-06T06:45:36.576Z,7.2
2018-01-06T06:46:37.236Z,7.1
2018-01-06T06:47:37.898Z,7.0
2018-01-06T06:48:38.559Z,7.1
2018-01-06T06:49:39.221Z,7.1
2018-01-06T06:50:39.881Z,7.0
2018-01-06T06:51:40.540Z,6.9
2018-01-06T06:52:41.201Z,7.1
2018-01-06T06:53:41.861Z,7.0
2018-01-06T06:54:42.521Z,6.9
2018-01-06T06:55:43.182Z,7.0
2018-01-06T06:56:43.844Z,7.0
2018-01-06T06:57:44.505Z,7.0
2018-01-06T06:58:45.165Z,6.9
2018-01-06T06:59:45.825Z,6.9
2018-01-06T07:00:46.488Z,7.1
2018-01-06T07:01:47.149Z,7.1
2018-01-06T07:02:47.810Z,7.1
2018-01-06T07:03:48.472Z,7.1
2018-01-06T07:04:49.133Z,7.1
2018-01-06T07:05:49.794Z,7.2
2018-01-06T07:06:50.455Z,7.2
2018-01-06T07:07:51.116Z,7.3
2018-01-06T07:08:51.815Z,7.3
2018-01-06T07:09:52.474Z,7.4
2018-01-06T07:10:53.136Z,7.5
2018-01-06T07:11:53.797Z,7.4
2018-01-06T07:12:54.459Z,7.5
2018-01-06T07:13:55.120Z,7.6
2018-01-06T07:14:55.781Z,7.5
2018-01-06T07:15:56.443Z,7.6
2018-01-06T07:16:57.104Z,7.7
2018-01-06T07:17:57.764Z,7.7
2018-01-06T07:18:58.426Z,7.7
2018-01-06T07:19:59.087Z,7.7
2018-01-06T07:20:59.749Z,7.8
2018-01-06T07:22:00.407Z,7.8
2018-01-06T07:23:01.070Z,7.9
2018-01-06T07:24:01.773Z,7.8
2018-01-06T07:25:02.398Z,7.9
2018-01-06T07:26:03.112Z,7.9
2018-01-06T07:27:03.776Z,7.9
2018-01-06T07:28:04.440Z,8.0
2018-01-06T07:29:05.103Z,8.0
2018-01-06T07:30:05.767Z,8.0
2018-01-06T07:31:06.431Z,8.1
2018-01-06T07:32:07.093Z,8.1
2018-01-06T07:33:07.756Z,8.1
2018-01-06T07:34:08.419Z,8.1
2018-01-06T07:35:09.082Z,8.1
2018-01-06T07:36:09.795Z,8.0
2018-01-06T07:37:10.459Z,8.1
2018-01-06T07:38:11.122Z,8.2
2018-01-06T07:39:11.786Z,8.2
2018-01-06T07:40:12.487Z,8.1
2018-01-06T07:41:13.200Z,8.2
2018-01-06T07:42:13.865Z,8.3
2018-01-06T07:43:14.529Z,8.3
2018-01-06T07:44:15.194Z,8.2
2018-01-06T07:45:15.861Z,8.2
2018-01-06T07:46:16.527Z,8.2
2018-01-06T07:47:17.193Z,8.2
2018-01-06T07:48:17.858Z,8.2
2018-01-06T07:49:18.523Z,8.3
2018-01-06T07:50:19.191Z,8.2
2018-01-06T07:51:19.889Z,8.2
2018-01-06T07:52:20.554Z,8.3
2018-01-06T07:53:21.220Z,8.3
2018-01-06T07:54:21.882Z,8.3
2018-01-06T07:55:22.546Z,8.3
2018-01-06T07:56:23.210Z,8.3
2018-01-06T07:57:23.874Z,8.3
2018-01-06T07:58:24.540Z,8.4
2018-01-06T07:59:25.204Z,8.3
2018-01-06T08:00:25.868Z,8.3
2018-01-06T08:01:26.533Z,8.3
2018-01-06T08:02:27.198Z,8.3
2018-01-06T08:03:27.862Z,8.3
2018-01-06T08:04:28.526Z,8.3
2018-01-06T08:05:29.195Z,8.3
2018-01-06T08:06:29.893Z,8.3
2018-01-06T08:07:30.559Z,8.3
2018-01-06T08:08:31.224Z,8.3
2018-01-06T08:09:31.888Z,8.2
2018-01-06T08:10:32.554Z,8.3
2018-01-06T08:11:33.220Z,8.3
2018-01-06T08:12:33.889Z,8.3
2018-01-06T08:13:34.595Z,8.4
2018-01-06T08:14:35.259Z,8.3
2018-01-06T08:15:35.923Z,8.4
2018-01-06T08:16:36.590Z,8.3
2018-01-06T08:17:37.257Z,8.3
2018-01-06T08:18:37.922Z,8.3
2018-01-06T08:19:38.588Z,8.3
2018-01-06T08:20:39.253Z,8.2
2018-01-06T08:21:39.920Z,8.3
2018-01-06T08:22:40.587Z,8.3
2018-01-06T08:23:41.292Z,8.3
2018-01-06T08:24:41.992Z,8.2
2018-01-06T08:25:42.656Z,8.3
2018-01-06T08:26:43.322Z,8.3
2018-01-06T08:27:43.988Z,8.3
2018-01-06T08:28:44.656Z,8.2
2018-01-06T08:29:45.320Z,8.2
2018-01-06T08:30:45.986Z,8.3
2018-01-06T08:31:46.653Z,8.2
2018-01-06T08:32:47.324Z,8.3
2018-01-06T08:33:48.024Z,8.3
2018-01-06T08:34:48.690Z,8.2
2018-01-06T08:35:49.361Z,8.2
2018-01-06T08:36:50.022Z,8.3
2018-01-06T08:37:50.688Z,8.3
2018-01-06T08:38:51.353Z,8.2
2018-01-06T08:39:52.021Z,8.2
2018-01-06T08:40:52.720Z,8.2
2018-01-06T08:41:53.385Z,8.2
2018-01-06T08:42:54.049Z,8.3
2018-01-06T08:43:54.716Z,8.3
2018-01-06T08:44:55.382Z,8.3
2018-01-06T08:45:56.048Z,8.4
2018-01-06T08:46:56.713Z,8.3
2018-01-06T08:47:57.380Z,8.5
2018-01-06T08:48:58.046Z,8.4
2018-01-06T08:49:58.709Z,8.4
2018-01-06T08:50:59.376Z,8.5
2018-01-06T08:52:00.127Z,8.5
2018-01-06T08:53:00.794Z,8.5
2018-01-06T08:54:01.461Z,8.6
2018-01-06T08:55:02.166Z,8.7
2018-01-06T08:56:02.831Z,8.7
2018-01-06T08:57:03.497Z,8.8
2018-01-06T08:58:04.163Z,8.7
2018-01-06T08:59:04.829Z,8.9
2018-01-06T09:00:05.531Z,8.9
2018-01-06T09:01:06.232Z,8.9
2018-01-06T09:02:06.900Z,8.9
2018-01-06T09:03:07.564Z,9.1
2018-01-06T09:04:08.229Z,9.2
2018-01-06T09:05:08.897Z,9.2
2018-01-06T09:06:09.564Z,9.4
2018-01-06T09:07:10.234Z,9.3
2018-01-06T09:08:10.896Z,9.3
2018-01-06T09:09:11.564Z,9.4
2018-01-06T09:10:12.266Z,9.4
2018-01-06T09:11:12.932Z,9.5
2018-01-06T09:12:13.648Z,9.5
2018-01-06T09:13:14.314Z,9.5
2018-01-06T09:14:14.982Z,9.6
2018-01-06T09:15:15.649Z,9.5
2018-01-06T09:16:16.316Z,9.6
2018-01-06T09:17:16.986Z,9.6
2018-01-06T09:18:17.688Z,9.6
2018-01-06T09:19:18.354Z,9.6
2018-01-06T09:20:19.070Z,9.6
2018-01-06T09:21:19.687Z,9.6
2018-01-06T09:22:20.403Z,9.7
2018-01-06T09:23:21.070Z,9.7
2018-01-06T09:24:21.740Z,9.7
2018-01-06T09:25:22.403Z,9.7
2018-01-06T09:26:23.070Z,9.7
2018-01-06T09:27:23.739Z,9.7
2018-01-06T09:28:24.402Z,9.7
2018-01-06T09:29:25.068Z,9.8
2018-01-06T09:30:25.733Z,9.8
2018-01-06T09:31:26.401Z,9.9
2018-01-06T09:32:27.107Z,9.9
2018-01-06T09:33:27.811Z,10.0
2018-01-06T09:34:28.480Z,10.0
2018-01-06T09:35:29.148Z,10.1
2018-01-06T09:36:29.816Z,10.1
2018-01-06T09:37:30.485Z,10.2
2018-01-06T09:38:31.152Z,10.3
2018-01-06T09:39:31.819Z,10.3
2018-01-06T09:40:32.486Z,10.4
2018-01-06T09:41:33.156Z,10.4
2018-01-06T09:42:33.824Z,10.5
2018-01-06T09:43:34.492Z,10.5
2018-01-06T09:44:35.161Z,10.6
2018-01-06T09:45:35.828Z,10.5
2018-01-06T09:46:36.533Z,10.6
2018-01-06T09:47:37.283Z,10.6
2018-01-06T09:48:37.908Z,10.6
2018-01-06T09:49:38.576Z,10.6
2018-01-06T09:50:39.245Z,10.6
2018-01-06T09:51:39.914Z,10.7
2018-01-06T09:52:40.581Z,10.6
2018-01-06T09:53:41.250Z,10.6
2018-01-06T09:54:41.955Z,10.6
2018-01-06T09:55:42.623Z,10.6
2018-01-06T09:56:43.294Z,10.6
2018-01-06T09:57:43.963Z,10.7
2018-01-06T09:58:44.666Z,10.6
2018-01-06T09:59:45.335Z,10.7
2018-01-06T10:00:46.004Z,10.7
2018-01-06T10:01:46.673Z,10.7
2018-01-06T10:02:47.341Z,10.8
2018-01-06T10:03:48.010Z,10.8
2018-01-06T10:04:48.676Z,10.8
2018-01-06T10:05:49.343Z,10.7
2018-01-06T10:06:50.013Z,10.8
2018-01-06T10:07:50.733Z,10.7
2018-01-06T10:08:51.403Z,10.8
2018-01-06T10:09:52.108Z,10.8
2018-01-06T10:10:52.776Z,10.8
2018-01-06T10:11:53.446Z,10.8
2018-01-06T10:12:54.117Z,11.0
2018-01-06T10:13:54.789Z,10.9
2018-01-06T10:14:55.454Z,11.1
2018-01-06T10:15:56.123Z,11.0
2018-01-06T10:16:56.792Z,11.1
2018-01-06T10:17:57.560Z,11.1
2018-01-06T10:18:58.165Z,11.2
2018-01-06T10:19:58.832Z,11.0
2018-01-06T10:20:59.507Z,11.0
2018-01-06T10:22:00.172Z,11.0
2018-01-06T10:23:00.839Z,11.0
2018-01-06T10:24:01.507Z,11.0
2018-01-06T10:25:02.186Z,11.0
2018-01-06T10:26:02.846Z,10.9
2018-01-06T10:27:03.514Z,11.0
2018-01-06T10:28:04.184Z,10.9
2018-01-06T10:29:04.861Z,10.8
2018-01-06T10:30:05.528Z,10.9
2018-01-06T10:31:06.197Z,10.9
2018-01-06T10:32:06.864Z,10.9
2018-01-06T10:33:07.582Z,10.8
2018-01-06T10:34:08.252Z,10.8
2018-01-06T10:35:08.921Z,10.8
2018-01-06T10:36:09.589Z,10.8
2018-01-06T10:37:10.258Z,10.7
2018-01-06T10:38:10.926Z,10.8
2018-01-06T10:39:11.595Z,10.7
2018-01-06T10:40:12.263Z,10.7
2018-01-06T10:41:12.933Z,10.6
2018-01-06T10:42:13.602Z,10.6
2018-01-06T10:43:14.270Z,10.6
2018-01-06T10:44:14.939Z,10.6
2018-01-06T10:45:15.607Z,10.7
2018-01-06T10:46:16.275Z,10.6
2018-01-06T10:47:16.947Z,10.6
2018-01-06T10:48:17.613Z,10.6
2018-01-06T10:49:18.282Z,10.6
2018-01-06T10:50:18.950Z,10.6
2018-01-06T10:51:19.620Z,10.7
2018-01-06T10:52:20.288Z,10.8
2018-01-06T10:53:21.008Z,10.8
2018-01-06T10:54:21.680Z,10.8
2018-01-06T10:55:22.349Z,10.8
2018-01-06T10:56:23.018Z,10.9
2018-01-06T10:57:23.688Z,11.0
2018-01-06T10:58:24.355Z,10.9
2018-01-06T10:59:25.024Z,11.0
2018-01-06T11:00:25.696Z,11.1
2018-01-06T11:01:26.364Z,11.2
2018-01-06T11:02:27.036Z,11.3
2018-01-06T11:03:27.704Z,11.3
2018-01-06T11:04:28.375Z,11.4
2018-01-06T11:05:29.051Z,11.5
2018-01-06T11:06:29.755Z,11.5
2018-01-06T11:07:30.426Z,11.5
2018-01-06T11:08:31.094Z,11.7
2018-01-06T11:09:31.764Z,11.7
2018-01-06T11:10:32.434Z,11.7
2018-01-06T11:11:33.106Z,11.7
2018-01-06T11:12:33.774Z,11.8
2018-01-06T11:13:34.495Z,11.9
2018-01-06T11:14:35.165Z,11.9
2018-01-06T11:15:35.834Z,12.0
2018-01-06T11:16:36.504Z,12.0
2018-01-06T11:17:37.174Z,12.0
2018-01-06T11:18:37.846Z,12.0
2018-01-06T11:19:38.516Z,12.1
2018-01-06T11:20:39.188Z,11.9
2018-01-06T11:21:39.857Z,12.0
2018-01-06T11:22:40.550Z,12.1
2018-01-06T11:23:41.250Z,12.0
2018-01-06T11:24:41.920Z,12.0
2018-01-06T11:25:42.590Z,12.0
2018-01-06T11:26:43.260Z,12.2
2018-01-06T11:27:43.930Z,12.1
2018-01-06T11:28:44.610Z,12.2
2018-01-06T11:29:45.274Z,12.2
2018-01-06T11:30:45.944Z,12.2
2018-01-06T11:31:46.614Z,12.2
2018-01-06T11:32:47.284Z,12.3
2018-01-06T11:33:47.952Z,12.3
2018-01-06T11:34:48.620Z,12.3
2018-01-06T11:35:49.291Z,12.3
2018-01-06T11:36:49.963Z,12.2
2018-01-06T11:37:50.632Z,12.3
2018-01-06T11:38:51.302Z,12.2
2018-01-06T11:39:51.971Z,12.2
2018-01-06T11:40:52.640Z,12.2
2018-01-06T11:41:53.313Z,12.2
2018-01-06T11:42:53.979Z,12.2
2018-01-06T11:43:54.651Z,12.1
2018-01-06T11:44:55.356Z,12.1
2018-01-06T11:45:56.025Z,12.1
2018-01-06T11:46:56.694Z,12.0
2018-01-06T11:47:57.370Z,12.1
2018-01-06T11:48:58.033Z,12.0
2018-01-06T11:49:58.702Z,12.0
2018-01-06T11:50:59.414Z,12.0
2018-01-06T11:52:00.116Z,11.9
2018-01-06T11:53:00.787Z,11.9
2018-01-06T11:54:01.458Z,12.0
2018-01-06T11:55:02.127Z,12.0
2018-01-06T11:56:02.800Z,11.9
2018-01-06T11:57:03.466Z,11.9
2018-01-06T11:58:04.135Z,11.9
2018-01-06T11:59:04.804Z,11.9
2018-01-06T12:00:05.475Z,11.8
2018-01-06T12:01:06.143Z,11.7
2018-01-06T12:02:06.814Z,11.9
2018-01-06T12:03:07.484Z,11.9
2018-01-06T12:04:08.153Z,11.9
2018-01-06T12:05:08.823Z,11.8
2018-01-06T12:06:09.494Z,11.8
2018-01-06T12:07:10.162Z,11.7
2018-01-06T12:08:10.831Z,11.8
2018-01-06T12:09:11.501Z,11.8
2018-01-06T12:10:12.209Z,11.7
2018-01-06T12:11:12.874Z,11.7
2018-01-06T12:12:13.544Z,11.8
2018-01-06T12:13:14.212Z,11.8
2018-01-06T12:14:14.881Z,11.7
2018-01-06T12:15:15.602Z,11.7
2018-01-06T12:16:16.222Z,11.7
2018-01-06T12:17:16.890Z,11.6
2018-01-06T12:18:17.565Z,11.7
2018-01-06T12:19:18.230Z,11.6
2018-01-06T12:20:18.899Z,11.7
2018-01-06T12:21:19.567Z,11.5
2018-01-06T12:22:20.236Z,11.6
2018-01-06T12:23:20.907Z,11.6
2018-01-06T12:24:21.625Z,11.6
2018-01-06T12:25:22.295Z,11.6
2018-01-06T12:26:23.004Z,11.6
2018-01-06T12:27:23.671Z,11.5
2018-01-06T12:28:24.338Z,11.5
2018-01-06T12:29:25.007Z,11.6
2018-01-06T12:30:25.676Z,11.7
2018-01-06T12:31:26.348Z,11.5
2018-01-06T12:32:27.021Z,11.6
2018-01-06T12:33:27.687Z,11.6
2018-01-06T12:34:28.355Z,11.6
2018-01-06T12:35:29.023Z,11.5
2018-01-06T12:36:29.700Z,11.4
2018-01-06T12:37:30.364Z,11.5
2018-01-06T12:38:31.037Z,11.4
2018-01-06T12:39:31.753Z,11.5
2018-01-06T12:40:32.421Z,11.5
2018-01-06T12:41:33.090Z,11.4
2018-01-06T12:42:33.760Z,11.5
2018-01-06T12:43:34.431Z,11.4
2018-01-06T12:44:35.099Z,11.4
2018-01-06T12:45:35.771Z,11.4
2018-01-06T12:46:36.476Z,11.4
2018-01-06T12:47:37.146Z,11.3
2018-01-06T12:48:37.814Z,11.4
2018-01-06T12:49:38.483Z,11.3
2018-01-06T12:50:39.152Z,11.3
2018-01-06T12:51:39.821Z,11.3
2018-01-06T12:52:40.490Z,11.3
2018-01-06T12:53:41.160Z,11.3
2018-01-06T12:54:41.828Z,11.3
2018-01-06T12:55:42.496Z,11.2
2018-01-06T12:56:43.166Z,11.2
2018-01-06T12:57:43.836Z,11.2
2018-01-06T12:58:44.507Z,11.1
2018-01-06T12:59:45.175Z,11.1
2018-01-06T13:00:45.844Z,11.1
2018-01-06T13:01:46.514Z,11.1
2018-01-06T13:02:47.182Z,11.1
2018-01-06T13:03:47.849Z,11.1
2018-01-06T13:04:48.523Z,11.1
2018-01-06T13:05:49.189Z,11.1
2018-01-06T13:06:49.859Z,11.0
2018-01-06T13:07:50.564Z,11.0
2018-01-06T13:08:51.233Z,11.1
2018-01-06T13:09:51.901Z,11.0
2018-01-06T13:10:52.567Z,10.9
2018-01-06T13:11:53.240Z,11.0
2018-01-06T13:12:53.944Z,11.0
2018-01-06T13:13:54.614Z,11.0
2018-01-06T13:14:55.282Z,11.0
2018-01-06T13:15:55.951Z,11.0
2018-01-06T13:16:56.620Z,10.9
2018-01-06T13:17:57.288Z,10.8
2018-01-06T13:18:57.958Z,10.9
2018-01-06T13:19:58.626Z,10.9
2018-01-06T13:20:59.297Z,10.9
2018-01-06T13:21:59.965Z,11.0
2018-01-06T13:23:00.675Z,11.0
2018-01-06T13:24:01.302Z,10.9
2018-01-06T13:25:01.972Z,10.9
2018-01-06T13:26:02.639Z,10.9
2018-01-06T13:27:03.308Z,10.8
2018-01-06T13:28:03.977Z,10.8
2018-01-06T13:29:04.646Z,10.9
2018-01-06T13:30:05.354Z,11.0
2018-01-06T13:31:06.053Z,10.9
2018-01-06T13:32:06.690Z,10.9
2018-01-06T13:33:07.361Z,10.9
2018-01-06T13:34:08.028Z,10.9
2018-01-06T13:35:08.696Z,10.8
2018-01-06T13:36:09.366Z,10.9
2018-01-06T13:37:10.036Z,10.8
2018-01-06T13:38:10.703Z,10.8
2018-01-06T13:39:11.373Z,10.8
2018-01-06T13:40:12.041Z,10.8
2018-01-06T13:41:12.710Z,10.8
2018-01-06T13:42:13.379Z,10.8
2018-01-06T13:43:14.050Z,10.8
2018-01-06T13:44:14.719Z,10.8
2018-01-06T13:45:15.388Z,10.8
2018-01-06T13:46:16.056Z,10.7